Time,TemperatureF,DewpointF,PressureIn,WindDirection,WindDirectionDegrees,WindSpeedMPH,WindSpeedGustMPH,Humidity,HourlyPrecipIn,Conditions,Clouds,dailyrainin,SolarRadiationWatts/m^2,SoftwareType,DateUTC
2013-05-23 00:02:00,55.6,49.2,29.97,North,355,10.0,14.0,79,0.00,,,0.00,0,Wunderground v.1.15,2013-05-23 05:02:00,
2013-05-23 00:07:00,55.5,49.1,29.97,NNW,335,8.0,14.0,79,0.00,,,0.00,0,Wunderground v.1.15,2013-05-23 05:07:00,
2013-05-23 00:12:00,55.4,49.0,29.97,NW,325,11.0,12.0,79,0.00,,,0.00,0,Wunderground v.1.15,2013-05-23 05:12:00,
2013-05-23 00:17:00,55.2,48.8,29.97,NNW,336,11.0,15.0,79,0.00,,,0.00,0,Wunderground v.1.15,2013-05-23 05:17:00,
2013-05-23 00:23:00,55.0,48.6,29.97,NNW,333,9.0,16.0,79,0.00,,,0.00,0,Wunderground v.1.15,2013-05-23 05:23:00,
2013-05-23 00:28:00,54.9,48.5,29.97,NNW,330,8.0,16.0,79,0.00,,,0.00,0,Wunderground v.1.15,2013-05-23 05:28:00,
2013-05-23 00:33:00,54.8,48.7,29.97,NNW,341,9.0,11.0,80,0.00,,,0.00,0,Wunderground v.1.15,2013-05-23 05:33:00,
2013-05-23 00:38:00,54.6,48.6,29.98,NNW,343,8.0,11.0,80,0.00,,,0.00,0,Wunderground v.1.15,2013-05-23 05:38:00,
2013-05-23 00:43:00,54.4,48.4,29.98,NNW,335,9.0,14.0,80,0.00,,,0.00,0,Wunderground v.1.15,2013-05-23 05:43:00,
2013-05-23 00:48:00,54.0,48.3,29.98,NNW,335,13.0,14.0,81,0.00,,,0.00,0,Wunderground v.1.15,2013-05-23 05:48:00,
2013-05-23 00:53:00,53.7,48.0,29.97,NNW,335,12.0,13.0,81,0.00,,,0.00,0,Wunderground v.1.15,2013-05-23 05:53:00,
2013-05-23 00:58:00,53.4,48.0,29.97,North,349,8.0,13.0,82,0.00,,,0.00,0,Wunderground v.1.15,2013-05-23 05:58:00,
2013-05-23 01:03:00,53.1,47.7,29.98,North,355,8.0,12.0,82,0.00,,,0.00,0,Wunderground v.1.15,2013-05-23 06:03:00,
2013-05-23 01:09:00,52.8,47.8,29.98,NNW,328,10.0,12.0,83,0.00,,,0.00,0,Wunderground v.1.15,2013-05-23 06:09:00,
2013-05-23 01:14:00,52.5,47.5,29.98,NNW,341,8.0,10.0,83,0.00,,,0.00,0,Wunderground v.1.15,2013-05-23 06:14:00,
2013-05-23 01:19:00,52.3,47.6,29.98,NNW,342,11.0,14.0,84,0.00,,,0.00,0,Wunderground v.1.15,2013-05-23 06:19:00,
2013-05-23 01:24:00,52.2,47.5,29.98,NNW,343,8.0,12.0,84,0.00,,,0.00,0,Wunderground v.1.15,2013-05-23 06:24:00,
2013-05-23 01:29:00,52.1,47.4,29.98,NNW,347,10.0,12.0,84,0.00,,,0.00,0,Wunderground v.1.15,2013-05-23 06:29:00,
2013-05-23 01:34:00,52.0,47.6,29.99,North,350,10.0,14.0,85,0.00,,,0.00,0,Wunderground v.1.15,2013-05-23 06:34:00,
2013-05-23 01:39:00,51.9,47.5,29.99,North,355,9.0,14.0,85,0.00,,,0.00,0,Wunderground v.1.15,2013-05-23 06:39:00,
2013-05-23 01:44:00,51.8,47.4,29.99,North,355,12.0,12.0,85,0.00,,,0.00,0,Wunderground v.1.15,2013-05-23 06:44:00,
2013-05-23 01:49:00,51.7,47.3,29.99,NNW,348,9.0,12.0,85,0.00,,,0.00,0,Wunderground v.1.15,2013-05-23 06:49:00,
2013-05-23 01:54:00,51.6,47.2,30.00,North,355,13.0,15.0,85,0.00,,,0.00,0,Wunderground v.1.15,2013-05-23 06:54:00,
2013-05-23 01:59:00,51.6,47.2,29.99,North,355,11.0,15.0,85,0.00,,,0.00,0,Wunderground v.1.15,2013-05-23 06:59:00,
2013-05-23 02:04:00,51.6,47.2,29.99,NNW,341,10.0,13.0,85,0.00,,,0.00,0,Wunderground v.1.15,2013-05-23 07:04:00,
2013-05-23 02:09:00,51.6,47.2,30.00,NW,324,8.0,13.0,85,0.00,,,0.00,0,Wunderground v.1.15,2013-05-23 07:09:00,
2013-05-23 02:14:00,51.5,47.1,30.00,NW,325,4.0,10.0,85,0.00,,,0.00,0,Wunderground v.1.15,2013-05-23 07:14:00,
2013-05-23 02:19:00,51.4,47.0,30.00,NW,309,8.0,10.0,85,0.00,,,0.00,0,Wunderground v.1.15,2013-05-23 07:19:00,
2013-05-23 02:24:00,51.3,47.3,30.00,WNW,303,9.0,9.0,86,0.00,,,0.00,0,Wunderground v.1.15,2013-05-23 07:24:00,
2013-05-23 02:29:00,51.1,47.1,30.00,NNW,338,8.0,14.0,86,0.00,,,0.00,0,Wunderground v.1.15,2013-05-23 07:29:00,
2013-05-23 02:34:00,51.0,47.3,30.00,NNW,336,8.0,12.0,87,0.00,,,0.00,0,Wunderground v.1.15,2013-05-23 07:34:00,
2013-05-23 02:39:00,50.9,47.2,30.00,NW,322,6.0,12.0,87,0.00,,,0.00,0,Wunderground v.1.15,2013-05-23 07:39:00,
2013-05-23 02:44:00,50.9,47.5,30.00,NW,311,9.0,12.0,88,0.00,,,0.00,0,Wunderground v.1.15,2013-05-23 07:44:00,
2013-05-23 02:49:00,51.1,47.7,30.00,NNW,336,12.0,13.0,88,0.00,,,0.00,0,Wunderground v.1.15,2013-05-23 07:49:00,
2013-05-23 02:54:00,51.3,47.9,30.00,NNW,341,9.0,14.0,88,0.00,,,0.00,0,Wunderground v.1.15,2013-05-23 07:54:00,
2013-05-23 02:59:00,51.4,48.0,30.00,NNW,336,10.0,14.0,88,0.00,,,0.00,0,Wunderground v.1.15,2013-05-23 07:59:00,
2013-05-23 03:04:00,51.5,48.1,30.00,NNW,336,13.0,15.0,88,0.00,,,0.00,0,Wunderground v.1.15,2013-05-23 08:04:00,
2013-05-23 03:09:00,51.5,47.8,30.00,NNW,348,9.0,15.0,87,0.00,,,0.00,0,Wunderground v.1.15,2013-05-23 08:09:00,
2013-05-23 03:14:00,51.6,47.9,30.00,NNW,342,14.0,16.0,87,0.00,,,0.00,0,Wunderground v.1.15,2013-05-23 08:14:00,
2013-05-23 03:19:00,51.7,48.0,30.00,NNW,348,14.0,19.0,87,0.00,,,0.00,0,Wunderground v.1.15,2013-05-23 08:19:00,
2013-05-23 03:24:00,52.0,48.3,30.00,NNW,336,13.0,17.0,87,0.00,,,0.00,0,Wunderground v.1.15,2013-05-23 08:24:00,
2013-05-23 03:29:00,52.2,48.1,30.01,NNW,328,18.0,19.0,86,0.00,,,0.00,0,Wunderground v.1.15,2013-05-23 08:29:00,
2013-05-23 03:34:00,52.4,48.3,30.01,NNW,334,13.0,20.0,86,0.00,,,0.00,0,Wunderground v.1.15,2013-05-23 08:34:00,
2013-05-23 03:39:00,52.5,48.4,30.01,NNW,333,9.0,20.0,86,0.00,,,0.00,0,Wunderground v.1.15,2013-05-23 08:39:00,
2013-05-23 03:44:00,52.6,48.2,30.01,NNW,332,10.0,16.0,85,0.00,,,0.00,0,Wunderground v.1.15,2013-05-23 08:44:00,
2013-05-23 03:49:00,52.5,48.1,30.01,NNW,331,7.0,16.0,85,0.00,,,0.00,0,Wunderground v.1.15,2013-05-23 08:49:00,
2013-05-23 03:54:00,52.4,48.0,30.02,NNW,329,8.0,11.0,85,0.00,,,0.00,0,Wunderground v.1.15,2013-05-23 08:54:00,
2013-05-23 03:59:00,52.2,47.8,30.02,NNW,330,9.0,11.0,85,0.00,,,0.00,0,Wunderground v.1.15,2013-05-23 08:59:00,
2013-05-23 04:04:00,52.0,47.6,30.02,NNW,340,8.0,8.0,85,0.00,,,0.00,0,Wunderground v.1.15,2013-05-23 09:04:00,
2013-05-23 04:09:00,51.7,47.3,30.02,NNW,348,6.0,8.0,85,0.00,,,0.00,0,Wunderground v.1.15,2013-05-23 09:09:00,
2013-05-23 04:14:00,51.4,47.4,30.02,NNW,348,7.0,10.0,86,0.00,,,0.00,0,Wunderground v.1.15,2013-05-23 09:14:00,
2013-05-23 04:19:00,51.2,47.2,30.02,NNW,344,7.0,10.0,86,0.00,,,0.00,0,Wunderground v.1.15,2013-05-23 09:19:00,
2013-05-23 04:24:00,51.2,47.5,30.02,NNW,343,10.0,12.0,87,0.00,,,0.00,0,Wunderground v.1.15,2013-05-23 09:24:00,
2013-05-23 04:29:00,51.5,48.1,30.02,North,5,9.0,17.0,88,0.00,,,0.00,0,Wunderground v.1.15,2013-05-23 09:29:00,
2013-05-23 04:34:00,51.8,48.4,30.02,North,355,12.0,15.0,88,0.00,,,0.00,0,Wunderground v.1.15,2013-05-23 09:34:00,
2013-05-23 04:39:00,52.1,48.3,30.02,North,355,9.0,15.0,87,0.00,,,0.00,0,Wunderground v.1.15,2013-05-23 09:39:00,
2013-05-23 04:44:00,52.2,48.4,30.03,North,355,7.0,12.0,87,0.00,,,0.00,0,Wunderground v.1.15,2013-05-23 09:44:00,
2013-05-23 04:49:00,52.3,48.5,30.02,North,350,10.0,12.0,87,0.00,,,0.00,0,Wunderground v.1.15,2013-05-23 09:49:00,
2013-05-23 04:54:00,52.4,48.6,30.02,North,10,7.0,11.0,87,0.00,,,0.00,0,Wunderground v.1.15,2013-05-23 09:54:00,
2013-05-23 04:59:00,52.4,48.6,30.03,North,355,7.0,11.0,87,0.00,,,0.00,0,Wunderground v.1.15,2013-05-23 09:59:00,
2013-05-23 05:04:00,52.5,48.7,30.03,NNW,344,9.0,12.0,87,0.00,,,0.00,0,Wunderground v.1.15,2013-05-23 10:04:00,
2013-05-23 05:09:00,52.5,48.7,30.03,North,355,9.0,12.0,87,0.00,,,0.00,0,Wunderground v.1.15,2013-05-23 10:09:00,
2013-05-23 05:14:00,52.5,48.7,30.03,NNW,347,11.0,13.0,87,0.00,,,0.00,0,Wunderground v.1.15,2013-05-23 10:14:00,
2013-05-23 05:19:00,52.5,48.7,30.03,NNW,345,8.0,14.0,87,0.00,,,0.00,0,Wunderground v.1.15,2013-05-23 10:19:00,
2013-05-23 05:24:00,52.6,48.8,30.03,North,5,11.0,12.0,87,0.00,,,0.00,0,Wunderground v.1.15,2013-05-23 10:24:00,
2013-05-23 05:29:00,52.6,48.8,30.04,NNW,344,14.0,16.0,87,0.00,,,0.00,0,Wunderground v.1.15,2013-05-23 10:29:00,
2013-05-23 05:34:00,52.6,48.8,30.04,NNW,348,8.0,14.0,87,0.00,,,0.00,0,Wunderground v.1.15,2013-05-23 10:34:00,
2013-05-23 05:39:00,52.6,48.8,30.04,NNW,347,9.0,14.0,87,0.00,,,0.00,0,Wunderground v.1.15,2013-05-23 10:39:00,
2013-05-23 05:44:00,52.5,48.7,30.05,North,360,9.0,12.0,87,0.00,,,0.00,0,Wunderground v.1.15,2013-05-23 10:44:00,
2013-05-23 05:49:00,52.5,48.7,30.05,NNW,339,7.0,12.0,87,0.00,,,0.00,0,Wunderground v.1.15,2013-05-23 10:49:00,
2013-05-23 05:54:00,52.5,48.7,30.06,NNW,348,10.0,11.0,87,0.00,,,0.00,0,Wunderground v.1.15,2013-05-23 10:54:00,
2013-05-23 06:00:00,52.5,48.7,30.06,NNW,344,8.0,9.0,87,0.00,,,0.00,0,Wunderground v.1.15,2013-05-23 11:00:00,
2013-05-23 06:05:00,52.5,48.7,30.07,NNW,341,12.0,14.0,87,0.00,,,0.00,0,Wunderground v.1.15,2013-05-23 11:05:00,
2013-05-23 06:10:00,52.5,48.7,30.07,NNW,342,7.0,9.0,87,0.00,,,0.00,0,Wunderground v.1.15,2013-05-23 11:10:00,
2013-05-23 06:15:00,52.5,48.4,30.07,NNW,347,9.0,12.0,86,0.00,,,0.00,5,Wunderground v.1.15,2013-05-23 11:15:00,
2013-05-23 06:20:00,52.6,48.5,30.08,North,355,8.0,8.0,86,0.00,,,0.00,5,Wunderground v.1.15,2013-05-23 11:20:00,
2013-05-23 06:25:00,52.6,48.5,30.08,North,5,12.0,13.0,86,0.00,,,0.00,7,Wunderground v.1.15,2013-05-23 11:25:00,
2013-05-23 06:30:00,52.6,48.5,30.08,NNW,333,9.0,9.0,86,0.00,,,0.00,11,Wunderground v.1.15,2013-05-23 11:30:00,
2013-05-23 06:35:00,52.6,48.5,30.08,NNW,335,6.0,10.0,86,0.00,,,0.00,11,Wunderground v.1.15,2013-05-23 11:35:00,
2013-05-23 06:40:00,52.6,48.5,30.08,NNW,333,9.0,9.0,86,0.00,,,0.00,14,Wunderground v.1.15,2013-05-23 11:40:00,
2013-05-23 06:45:00,52.7,48.6,30.08,NNW,346,9.0,11.0,86,0.00,,,0.00,19,Wunderground v.1.15,2013-05-23 11:45:00,
2013-05-23 06:50:00,52.8,48.7,30.09,North,360,12.0,12.0,86,0.00,,,0.00,21,Wunderground v.1.15,2013-05-23 11:50:00,
2013-05-23 06:55:00,52.8,48.7,30.09,North,355,8.0,12.0,86,0.00,,,0.00,25,Wunderground v.1.15,2013-05-23 11:55:00,
2013-05-23 07:00:00,52.8,48.7,30.09,North,360,12.0,12.0,86,0.00,,,0.00,30,Wunderground v.1.15,2013-05-23 12:00:00,
2013-05-23 07:05:00,52.7,48.3,30.10,North,10,9.0,14.0,85,0.00,,,0.00,32,Wunderground v.1.15,2013-05-23 12:05:00,
2013-05-23 07:10:00,52.7,48.3,30.10,North,355,11.0,13.0,85,0.00,,,0.00,32,Wunderground v.1.15,2013-05-23 12:10:00,
2013-05-23 07:15:00,52.7,48.3,30.10,North,349,9.0,14.0,85,0.00,,,0.00,40,Wunderground v.1.15,2013-05-23 12:15:00,
2013-05-23 07:20:00,52.7,48.3,30.10,NNW,343,12.0,14.0,85,0.00,,,0.00,46,Wunderground v.1.15,2013-05-23 12:20:00,
2013-05-23 07:25:00,52.6,48.2,30.11,NNW,345,11.0,14.0,85,0.00,,,0.00,47,Wunderground v.1.15,2013-05-23 12:25:00,
2013-05-23 07:30:00,52.6,48.2,30.11,NW,323,11.0,12.0,85,0.00,,,0.00,53,Wunderground v.1.15,2013-05-23 12:30:00,
2013-05-23 07:35:00,52.5,48.1,30.11,NNW,327,9.0,12.0,85,0.00,,,0.00,58,Wunderground v.1.15,2013-05-23 12:35:00,
2013-05-23 07:40:00,52.5,48.1,30.11,NW,315,11.0,13.0,85,0.00,,,0.00,62,Wunderground v.1.15,2013-05-23 12:40:00,
2013-05-23 07:45:00,52.6,48.2,30.11,NNW,347,9.0,14.0,85,0.00,,,0.00,65,Wunderground v.1.15,2013-05-23 12:45:00,
2013-05-23 07:50:00,52.6,47.9,30.11,NNW,327,12.0,13.0,84,0.00,,,0.00,70,Wunderground v.1.15,2013-05-23 12:50:00,
2013-05-23 07:55:00,52.6,48.2,30.12,NNW,342,13.0,14.0,85,0.00,,,0.00,77,Wunderground v.1.15,2013-05-23 12:55:00,
2013-05-23 08:01:00,52.6,47.9,30.12,NNW,332,10.0,12.0,84,0.00,,,0.00,86,Wunderground v.1.15,2013-05-23 13:01:00,
2013-05-23 08:06:00,52.6,47.9,30.12,NNW,339,12.0,14.0,84,0.00,,,0.00,91,Wunderground v.1.15,2013-05-23 13:06:00,
2013-05-23 08:11:00,52.7,48.0,30.13,NW,325,4.0,14.0,84,0.00,,,0.00,83,Wunderground v.1.15,2013-05-23 13:11:00,
2013-05-23 08:16:00,52.7,48.0,30.13,NNW,327,6.0,14.0,84,0.00,,,0.00,72,Wunderground v.1.15,2013-05-23 13:16:00,
2013-05-23 08:21:00,52.7,48.0,30.13,NNW,335,10.0,10.0,84,0.00,,,0.00,81,Wunderground v.1.15,2013-05-23 13:21:00,
2013-05-23 08:26:00,52.7,48.0,30.13,NNW,337,12.0,15.0,84,0.00,,,0.00,90,Wunderground v.1.15,2013-05-23 13:26:00,
2013-05-23 08:31:00,52.8,48.1,30.13,NNW,332,15.0,15.0,84,0.00,,,0.00,111,Wunderground v.1.15,2013-05-23 13:31:00,
2013-05-23 08:36:00,52.8,48.1,30.13,North,11,10.0,15.0,84,0.00,,,0.00,132,Wunderground v.1.15,2013-05-23 13:36:00,
2013-05-23 08:41:00,53.0,48.3,30.13,NNW,347,12.0,13.0,84,0.00,,,0.00,141,Wunderground v.1.15,2013-05-23 13:41:00,
2013-05-23 08:46:00,53.1,48.4,30.13,North,355,11.0,13.0,84,0.00,,,0.00,139,Wunderground v.1.15,2013-05-23 13:46:00,
2013-05-23 08:52:00,53.2,48.5,30.14,NNW,340,13.0,13.0,84,0.00,,,0.00,137,Wunderground v.1.15,2013-05-23 13:52:00,
2013-05-23 08:57:00,53.4,48.7,30.14,NNE,15,10.0,13.0,84,0.00,,,0.00,155,Wunderground v.1.15,2013-05-23 13:57:00,
2013-05-23 09:02:00,53.5,48.8,30.14,NNE,14,7.0,10.0,84,0.00,,,0.00,148,Wunderground v.1.15,2013-05-23 14:02:00,
2013-05-23 09:07:00,53.6,48.6,30.14,North,360,8.0,12.0,83,0.00,,,0.00,141,Wunderground v.1.15,2013-05-23 14:07:00,
2013-05-23 09:12:00,53.7,48.7,30.14,North,355,9.0,12.0,83,0.00,,,0.00,135,Wunderground v.1.15,2013-05-23 14:12:00,
2013-05-23 09:17:00,53.7,48.7,30.14,North,355,9.0,12.0,83,0.00,,,0.00,146,Wunderground v.1.15,2013-05-23 14:17:00,
2013-05-23 09:22:00,53.9,48.9,30.14,North,5,9.0,12.0,83,0.00,,,0.00,165,Wunderground v.1.15,2013-05-23 14:22:00,
2013-05-23 09:27:00,54.0,49.0,30.14,North,9,9.0,13.0,83,0.00,,,0.00,148,Wunderground v.1.15,2013-05-23 14:27:00,
2013-05-23 09:32:00,54.0,49.0,30.14,NNE,12,11.0,15.0,83,0.00,,,0.00,158,Wunderground v.1.15,2013-05-23 14:32:00,
2013-05-23 09:37:00,53.9,48.9,30.14,North,360,7.0,15.0,83,0.00,,,0.00,172,Wunderground v.1.15,2013-05-23 14:37:00,
2013-05-23 09:42:00,53.9,49.2,30.14,NNE,23,16.0,18.0,84,0.00,,,0.00,202,Wunderground v.1.15,2013-05-23 14:42:00,
2013-05-23 09:47:00,53.8,49.1,30.14,NE,42,9.0,18.0,84,0.00,,,0.00,246,Wunderground v.1.15,2013-05-23 14:47:00,
2013-05-23 09:52:00,53.9,49.2,30.14,NNE,30,16.0,16.0,84,0.00,,,0.00,290,Wunderground v.1.15,2013-05-23 14:52:00,
2013-05-23 09:57:00,54.1,49.4,30.14,North,10,14.0,18.0,84,0.00,,,0.00,250,Wunderground v.1.15,2013-05-23 14:57:00,
2013-05-23 10:02:00,54.1,49.4,30.14,NE,40,10.0,14.0,84,0.00,,,0.00,269,Wunderground v.1.15,2013-05-23 15:02:00,
2013-05-23 10:07:00,54.2,49.5,30.14,NNE,21,18.0,19.0,84,0.00,,,0.00,299,Wunderground v.1.15,2013-05-23 15:07:00,
2013-05-23 10:12:00,54.3,49.6,30.14,NE,46,14.0,18.0,84,0.00,,,0.00,320,Wunderground v.1.15,2013-05-23 15:12:00,
2013-05-23 10:17:00,54.4,49.7,30.14,NNE,16,17.0,23.0,84,0.00,,,0.00,301,Wunderground v.1.15,2013-05-23 15:17:00,
2013-05-23 10:22:00,54.4,49.3,30.13,NNE,16,14.0,18.0,83,0.00,,,0.00,294,Wunderground v.1.15,2013-05-23 15:22:00,
2013-05-23 10:27:00,54.6,49.5,30.14,NNE,19,18.0,18.0,83,0.00,,,0.00,283,Wunderground v.1.15,2013-05-23 15:27:00,
2013-05-23 10:32:00,54.4,50.3,30.14,NE,40,12.0,15.0,86,0.00,,,0.00,221,Wunderground v.1.15,2013-05-23 15:32:00,
2013-05-23 10:37:00,54.2,49.5,30.14,NNE,26,9.0,15.0,84,0.00,,,0.00,214,Wunderground v.1.15,2013-05-23 15:37:00,
2013-05-23 10:42:00,54.2,49.5,30.14,NNE,27,8.0,17.0,84,0.00,,,0.00,248,Wunderground v.1.15,2013-05-23 15:42:00,
2013-05-23 10:47:00,54.3,49.9,30.13,NE,42,11.0,17.0,85,0.00,,,0.00,292,Wunderground v.1.15,2013-05-23 15:47:00,
2013-05-23 10:52:00,54.5,49.8,30.13,NNE,13,11.0,17.0,84,0.00,,,0.00,313,Wunderground v.1.15,2013-05-23 15:52:00,
2013-05-23 10:57:00,54.6,49.9,30.14,North,10,11.0,17.0,84,0.00,,,0.00,332,Wunderground v.1.15,2013-05-23 15:57:00,
2013-05-23 11:02:00,54.8,50.1,30.14,NNE,15,14.0,16.0,84,0.00,,,0.00,360,Wunderground v.1.15,2013-05-23 16:02:00,
2013-05-23 11:07:00,55.1,50.0,30.13,NE,40,12.0,22.0,83,0.00,,,0.00,420,Wunderground v.1.15,2013-05-23 16:07:00,
2013-05-23 11:12:00,55.4,50.3,30.13,NE,34,9.0,19.0,83,0.00,,,0.00,475,Wunderground v.1.15,2013-05-23 16:12:00,
2013-05-23 11:17:00,55.9,50.8,30.13,NE,34,13.0,19.0,83,0.00,,,0.00,473,Wunderground v.1.15,2013-05-23 16:17:00,
2013-05-23 11:22:00,56.0,50.3,30.14,NNE,23,10.0,19.0,81,0.00,,,0.00,388,Wunderground v.1.15,2013-05-23 16:22:00,
2013-05-23 11:27:00,55.9,50.5,30.14,NNE,12,12.0,19.0,82,0.00,,,0.00,469,Wunderground v.1.15,2013-05-23 16:27:00,
2013-05-23 11:32:00,56.2,50.8,30.14,NE,38,16.0,17.0,82,0.00,,,0.00,392,Wunderground v.1.15,2013-05-23 16:32:00,
2013-05-23 11:37:00,56.4,50.6,30.14,NE,37,7.0,17.0,81,0.00,,,0.00,434,Wunderground v.1.15,2013-05-23 16:37:00,
2013-05-23 11:42:00,56.8,50.7,30.14,NE,54,10.0,19.0,80,0.00,,,0.00,469,Wunderground v.1.15,2013-05-23 16:42:00,
2013-05-23 11:47:00,57.1,51.0,30.15,NNE,29,13.0,19.0,80,0.00,,,0.00,401,Wunderground v.1.15,2013-05-23 16:47:00,
2013-05-23 11:53:00,57.1,50.6,30.15,ENE,58,10.0,15.0,79,0.00,,,0.00,425,Wunderground v.1.15,2013-05-23 16:53:00,
2013-05-23 11:58:00,57.2,51.1,30.15,NE,42,11.0,15.0,80,0.00,,,0.00,464,Wunderground v.1.15,2013-05-23 16:58:00,
2013-05-23 12:03:00,57.7,51.2,30.15,NNE,16,12.0,16.0,79,0.00,,,0.00,508,Wunderground v.1.15,2013-05-23 17:03:00,
2013-05-23 12:08:00,58.1,51.6,30.14,NE,39,8.0,16.0,79,0.00,,,0.00,673,Wunderground v.1.15,2013-05-23 17:08:00,
2013-05-23 12:13:00,58.8,51.6,30.14,NNE,32,9.0,16.0,77,0.00,,,0.00,643,Wunderground v.1.15,2013-05-23 17:13:00,
2013-05-23 12:18:00,59.2,51.6,30.14,NNE,29,10.0,17.0,76,0.00,,,0.00,701,Wunderground v.1.15,2013-05-23 17:18:00,
2013-05-23 12:23:00,59.4,51.8,30.14,NNE,28,9.0,17.0,76,0.00,,,0.00,322,Wunderground v.1.15,2013-05-23 17:23:00,
2013-05-23 12:28:00,59.0,51.8,30.14,NE,41,9.0,17.0,77,0.00,,,0.00,589,Wunderground v.1.15,2013-05-23 17:28:00,
2013-05-23 12:33:00,59.7,52.1,30.15,NNE,33,9.0,15.0,76,0.00,,,0.00,712,Wunderground v.1.15,2013-05-23 17:33:00,
2013-05-23 12:39:00,60.5,52.2,30.15,East,80,5.0,17.0,74,0.00,,,0.00,580,Wunderground v.1.15,2013-05-23 17:39:00,
2013-05-23 12:44:00,60.3,51.6,30.15,NE,39,9.0,15.0,73,0.00,,,0.00,656,Wunderground v.1.15,2013-05-23 17:44:00,
2013-05-23 12:49:00,60.1,51.8,30.15,NE,45,12.0,18.0,74,0.00,,,0.00,703,Wunderground v.1.15,2013-05-23 17:49:00,
2013-05-23 12:54:00,60.2,52.2,30.14,NNE,21,13.0,19.0,75,0.00,,,0.00,777,Wunderground v.1.15,2013-05-23 17:54:00,
2013-05-23 12:59:00,60.3,52.3,30.15,NE,48,8.0,19.0,75,0.00,,,0.00,759,Wunderground v.1.15,2013-05-23 17:59:00,
2013-05-23 13:04:00,60.6,52.3,30.15,ENE,58,8.0,16.0,74,0.00,,,0.00,1348,Wunderground v.1.15,2013-05-23 18:04:00,
2013-05-23 13:09:00,60.9,51.8,30.15,ENE,71,10.0,21.0,72,0.00,,,0.00,1139,Wunderground v.1.15,2013-05-23 18:09:00,
2013-05-23 13:14:00,61.0,52.3,30.16,NNE,29,3.0,12.0,73,0.00,,,0.00,1032,Wunderground v.1.15,2013-05-23 18:14:00,
2013-05-23 13:19:00,61.4,53.0,30.16,NE,38,12.0,14.0,74,0.00,,,0.00,601,Wunderground v.1.15,2013-05-23 18:19:00,
2013-05-23 13:24:00,61.8,52.3,30.16,NNE,19,7.0,16.0,71,0.00,,,0.00,657,Wunderground v.1.15,2013-05-23 18:24:00,
2013-05-23 13:29:00,62.1,52.2,30.16,ENE,63,11.0,18.0,70,0.00,,,0.00,995,Wunderground v.1.15,2013-05-23 18:29:00,
2013-05-23 13:34:00,62.3,52.8,30.16,ENE,76,5.0,17.0,71,0.00,,,0.00,1079,Wunderground v.1.15,2013-05-23 18:34:00,
2013-05-23 13:39:00,62.5,52.6,30.16,NE,53,10.0,17.0,70,0.00,,,0.00,1060,Wunderground v.1.15,2013-05-23 18:39:00,
2013-05-23 13:44:00,63.0,53.1,30.15,ENE,71,8.0,17.0,70,0.00,,,0.00,930,Wunderground v.1.15,2013-05-23 18:44:00,
2013-05-23 13:49:00,63.1,53.2,30.15,NE,55,17.0,17.0,70,0.00,,,0.00,1072,Wunderground v.1.15,2013-05-23 18:49:00,
2013-05-23 13:54:00,63.1,53.2,30.15,ENE,65,8.0,17.0,70,0.00,,,0.00,1081,Wunderground v.1.15,2013-05-23 18:54:00,
2013-05-23 13:59:00,63.5,52.3,30.15,East,94,9.0,21.0,67,0.00,,,0.00,991,Wunderground v.1.15,2013-05-23 18:59:00,
2013-05-23 14:04:00,63.5,52.7,30.15,NE,55,11.0,17.0,68,0.00,,,0.00,1025,Wunderground v.1.15,2013-05-23 19:04:00,
2013-05-23 14:09:00,63.5,52.7,30.16,NE,37,10.0,17.0,68,0.00,,,0.00,1035,Wunderground v.1.15,2013-05-23 19:09:00,
2013-05-23 14:14:00,63.8,52.6,30.16,ENE,63,11.0,17.0,67,0.00,,,0.00,353,Wunderground v.1.15,2013-05-23 19:14:00,
2013-05-23 14:19:00,63.8,53.0,30.16,ENE,60,13.0,23.0,68,0.00,,,0.00,962,Wunderground v.1.15,2013-05-23 19:19:00,
2013-05-23 14:25:00,63.9,53.5,30.15,ENE,60,11.0,13.0,69,0.00,,,0.00,1062,Wunderground v.1.15,2013-05-23 19:25:00,
2013-05-23 14:30:00,64.0,52.4,30.15,ENE,72,12.0,12.0,66,0.00,,,0.00,1051,Wunderground v.1.15,2013-05-23 19:30:00,
2013-05-23 14:35:00,64.5,52.9,30.15,ENE,60,6.0,18.0,66,0.00,,,0.00,1046,Wunderground v.1.15,2013-05-23 19:35:00,
2013-05-23 14:40:00,65.0,53.4,30.15,NE,43,12.0,12.0,66,0.00,,,0.00,1129,Wunderground v.1.15,2013-05-23 19:40:00,
2013-05-23 14:45:00,64.9,52.4,30.15,ENE,71,11.0,18.0,64,0.00,,,0.00,427,Wunderground v.1.15,2013-05-23 19:45:00,
2013-05-23 14:50:00,65.0,53.4,30.15,East,92,6.0,18.0,66,0.00,,,0.00,1030,Wunderground v.1.15,2013-05-23 19:50:00,
2013-05-23 14:54:00,65.7,53.2,30.15,ESE,109,11.0,18.0,64,0.00,,,0.00,1028,Wunderground v.1.15,2013-05-23 19:54:00,
2013-05-23 15:00:00,66.0,53.9,30.15,ENE,75,7.0,18.0,65,0.00,,,0.00,967,Wunderground v.1.15,2013-05-23 20:00:00,
2013-05-23 15:05:00,66.0,53.5,30.15,ESE,105,12.0,15.0,64,0.00,,,0.00,998,Wunderground v.1.15,2013-05-23 20:05:00,
2013-05-23 15:10:00,66.4,53.4,30.15,ENE,66,13.0,13.0,63,0.00,,,0.00,1060,Wunderground v.1.15,2013-05-23 20:10:00,
2013-05-23 15:15:00,66.4,53.8,30.15,NE,54,8.0,18.0,64,0.00,,,0.00,1067,Wunderground v.1.15,2013-05-23 20:15:00,
2013-05-23 15:20:00,66.3,52.4,30.14,East,99,16.0,16.0,61,0.00,,,0.00,373,Wunderground v.1.15,2013-05-23 20:20:00,
2013-05-23 15:25:00,66.2,52.8,30.15,ESE,105,11.0,19.0,62,0.00,,,0.00,434,Wunderground v.1.15,2013-05-23 20:25:00,
2013-05-23 15:30:00,66.6,52.7,30.15,East,79,10.0,12.0,61,0.00,,,0.00,545,Wunderground v.1.15,2013-05-23 20:30:00,
2013-05-23 15:35:00,66.5,52.2,30.14,ESE,105,12.0,16.0,60,0.00,,,0.00,510,Wunderground v.1.15,2013-05-23 20:35:00,
2013-05-23 15:40:00,66.7,53.7,30.14,East,100,9.0,11.0,63,0.00,,,0.00,872,Wunderground v.1.15,2013-05-23 20:40:00,
2013-05-23 15:45:00,67.3,52.9,30.14,ENE,73,11.0,17.0,60,0.00,,,0.00,872,Wunderground v.1.15,2013-05-23 20:45:00,
2013-05-23 15:50:00,67.4,53.5,30.14,ESE,121,9.0,10.0,61,0.00,,,0.00,849,Wunderground v.1.15,2013-05-23 20:50:00,
2013-05-23 15:55:00,67.6,52.8,30.14,East,92,13.0,14.0,59,0.00,,,0.00,849,Wunderground v.1.15,2013-05-23 20:55:00,
2013-05-23 16:00:00,67.6,52.8,30.14,ENE,68,8.0,10.0,59,0.00,,,0.00,563,Wunderground v.1.15,2013-05-23 21:00:00,
2013-05-23 16:06:00,67.7,52.9,30.14,ESE,118,11.0,14.0,59,0.00,,,0.00,977,Wunderground v.1.15,2013-05-23 21:06:00,
2013-05-23 16:11:00,68.1,52.8,30.14,ESE,114,14.0,17.0,58,0.00,,,0.00,911,Wunderground v.1.15,2013-05-23 21:11:00,
2013-05-23 16:16:00,68.6,52.3,30.13,SE,138,11.0,17.0,56,0.00,,,0.00,830,Wunderground v.1.15,2013-05-23 21:16:00,
2013-05-23 16:21:00,68.9,52.6,30.14,East,94,11.0,14.0,56,0.00,,,0.00,921,Wunderground v.1.15,2013-05-23 21:21:00,
2013-05-23 16:26:00,68.6,52.3,30.14,ENE,67,7.0,14.0,56,0.00,,,0.00,884,Wunderground v.1.15,2013-05-23 21:26:00,
2013-05-23 16:31:00,68.6,52.8,30.14,East,101,14.0,18.0,57,0.00,,,0.00,846,Wunderground v.1.15,2013-05-23 21:31:00,
2013-05-23 16:36:00,68.8,52.9,30.13,ENE,61,10.0,18.0,57,0.00,,,0.00,803,Wunderground v.1.15,2013-05-23 21:36:00,
2013-05-23 16:41:00,68.9,53.5,30.13,East,96,9.0,20.0,58,0.00,,,0.00,664,Wunderground v.1.15,2013-05-23 21:41:00,
2013-05-23 16:46:00,68.5,52.2,30.13,East,92,11.0,20.0,56,0.00,,,0.00,183,Wunderground v.1.15,2013-05-23 21:46:00,
2013-05-23 16:51:00,68.4,52.6,30.13,East,80,14.0,14.0,57,0.00,,,0.00,737,Wunderground v.1.15,2013-05-23 21:51:00,
2013-05-23 16:56:00,68.8,52.0,30.13,ENE,60,10.0,17.0,55,0.00,,,0.00,696,Wunderground v.1.15,2013-05-23 21:56:00,
2013-05-23 17:01:00,68.8,52.5,30.13,ENE,71,7.0,11.0,56,0.00,,,0.00,689,Wunderground v.1.15,2013-05-23 22:01:00,
2013-05-23 17:06:00,69.1,52.2,30.13,East,96,14.0,25.0,55,0.00,,,0.00,654,Wunderground v.1.15,2013-05-23 22:06:00,
2013-05-23 17:11:00,69.0,52.6,30.13,ESE,121,6.0,12.0,56,0.00,,,0.00,599,Wunderground v.1.15,2013-05-23 22:11:00,
2013-05-23 17:16:00,69.2,52.3,30.13,East,95,8.0,15.0,55,0.00,,,0.00,401,Wunderground v.1.15,2013-05-23 22:16:00,
2013-05-23 17:21:00,68.9,51.6,30.13,SE,126,6.0,11.0,54,0.00,,,0.00,278,Wunderground v.1.15,2013-05-23 22:21:00,
2013-05-23 17:26:00,68.7,52.4,30.13,ESE,121,8.0,13.0,56,0.00,,,0.00,654,Wunderground v.1.15,2013-05-23 22:26:00,
2013-05-23 17:31:00,68.9,52.1,30.13,East,89,13.0,14.0,55,0.00,,,0.00,605,Wunderground v.1.15,2013-05-23 22:31:00,
2013-05-23 17:36:00,68.9,52.1,30.13,East,89,7.0,14.0,55,0.00,,,0.00,573,Wunderground v.1.15,2013-05-23 22:36:00,
2013-05-23 17:41:00,69.1,52.2,30.13,ESE,103,8.0,14.0,55,0.00,,,0.00,550,Wunderground v.1.15,2013-05-23 22:41:00,
2013-05-23 17:46:00,69.2,52.8,30.13,North,360,9.0,14.0,56,0.00,,,0.00,538,Wunderground v.1.15,2013-05-23 22:46:00,
2013-05-23 17:51:00,69.4,52.5,30.13,ESE,111,8.0,13.0,55,0.00,,,0.00,513,Wunderground v.1.15,2013-05-23 22:51:00,
2013-05-23 17:56:00,69.4,53.0,30.13,SE,129,13.0,18.0,56,0.00,,,0.00,499,Wunderground v.1.15,2013-05-23 22:56:00,
2013-05-23 18:01:00,69.5,52.6,30.14,ESE,119,8.0,11.0,55,0.00,,,0.00,506,Wunderground v.1.15,2013-05-23 23:01:00,
2013-05-23 18:06:00,69.5,52.1,30.14,SE,136,12.0,14.0,54,0.00,,,0.00,413,Wunderground v.1.15,2013-05-23 23:06:00,
2013-05-23 18:11:00,69.4,52.0,30.14,ESE,112,8.0,12.0,54,0.00,,,0.00,452,Wunderground v.1.15,2013-05-23 23:11:00,
2013-05-23 18:16:00,69.1,52.2,30.13,ESE,123,11.0,18.0,55,0.00,,,0.00,448,Wunderground v.1.15,2013-05-23 23:16:00,
2013-05-23 18:21:00,69.2,52.3,30.13,SE,126,8.0,14.0,55,0.00,,,0.00,443,Wunderground v.1.15,2013-05-23 23:21:00,
2013-05-23 18:27:00,69.1,52.7,30.13,SE,131,9.0,14.0,56,0.00,,,0.00,418,Wunderground v.1.15,2013-05-23 23:27:00,
2013-05-23 18:32:00,69.0,52.2,30.13,SE,124,13.0,17.0,55,0.00,,,0.00,399,Wunderground v.1.15,2013-05-23 23:32:00,
2013-05-23 18:37:00,69.0,52.2,30.13,ESE,112,13.0,17.0,55,0.00,,,0.00,376,Wunderground v.1.15,2013-05-23 23:37:00,
2013-05-23 18:42:00,68.9,52.1,30.13,ESE,104,11.0,14.0,55,0.00,,,0.00,353,Wunderground v.1.15,2013-05-23 23:42:00,
2013-05-23 18:47:00,68.7,51.9,30.13,ESE,109,13.0,16.0,55,0.00,,,0.00,336,Wunderground v.1.15,2013-05-23 23:47:00,
2013-05-23 18:52:00,68.5,52.2,30.12,ESE,111,7.0,12.0,56,0.00,,,0.00,315,Wunderground v.1.15,2013-05-23 23:52:00,
2013-05-23 18:57:00,68.4,51.6,30.13,ESE,114,13.0,19.0,55,0.00,,,0.00,297,Wunderground v.1.15,2013-05-23 23:57:00,
2013-05-23 19:02:00,68.3,52.0,30.13,East,99,14.0,14.0,56,0.00,,,0.00,278,Wunderground v.1.15,2013-05-24 00:02:00,
2013-05-23 19:07:00,68.1,52.3,30.13,SE,126,13.0,18.0,57,0.00,,,0.00,260,Wunderground v.1.15,2013-05-24 00:07:00,
2013-05-23 19:12:00,67.9,52.1,30.13,SE,130,12.0,13.0,57,0.00,,,0.00,246,Wunderground v.1.15,2013-05-24 00:12:00,
2013-05-23 19:17:00,67.9,52.1,30.13,ESE,107,7.0,14.0,57,0.00,,,0.00,225,Wunderground v.1.15,2013-05-24 00:17:00,
2013-05-23 19:22:00,67.8,52.0,30.13,ESE,119,11.0,14.0,57,0.00,,,0.00,206,Wunderground v.1.15,2013-05-24 00:22:00,
2013-05-23 19:27:00,67.6,51.8,30.12,ESE,111,12.0,14.0,57,0.00,,,0.00,186,Wunderground v.1.15,2013-05-24 00:27:00,
2013-05-23 19:32:00,67.3,51.5,30.13,East,98,9.0,15.0,57,0.00,,,0.00,167,Wunderground v.1.15,2013-05-24 00:32:00,
2013-05-23 19:37:00,67.2,51.9,30.13,SE,138,14.0,15.0,58,0.00,,,0.00,146,Wunderground v.1.15,2013-05-24 00:37:00,
2013-05-23 19:42:00,67.1,52.3,30.12,SE,127,11.0,13.0,59,0.00,,,0.00,127,Wunderground v.1.15,2013-05-24 00:42:00,
2013-05-23 19:47:00,66.9,51.6,30.12,ESE,119,11.0,14.0,58,0.00,,,0.00,109,Wunderground v.1.15,2013-05-24 00:47:00,
2013-05-23 19:52:00,66.7,51.5,30.13,SE,129,11.0,14.0,58,0.00,,,0.00,95,Wunderground v.1.15,2013-05-24 00:52:00,
2013-05-23 19:57:00,66.5,51.7,30.13,ESE,113,8.0,14.0,59,0.00,,,0.00,79,Wunderground v.1.15,2013-05-24 00:57:00,
2013-05-23 20:02:00,66.1,51.4,30.13,ESE,113,7.0,11.0,59,0.00,,,0.00,65,Wunderground v.1.15,2013-05-24 01:02:00,
2013-05-23 20:07:00,65.8,51.5,30.13,ESE,120,7.0,11.0,60,0.00,,,0.00,51,Wunderground v.1.15,2013-05-24 01:07:00,
2013-05-23 20:12:00,65.4,51.6,30.13,ESE,109,6.0,11.0,61,0.00,,,0.00,40,Wunderground v.1.15,2013-05-24 01:12:00,
2013-05-23 20:17:00,65.0,51.2,30.12,ESE,109,7.0,11.0,61,0.00,,,0.00,30,Wunderground v.1.15,2013-05-24 01:17:00,
2013-05-23 20:22:00,64.5,51.2,30.12,ESE,107,8.0,8.0,62,0.00,,,0.00,21,Wunderground v.1.15,2013-05-24 01:22:00,
2013-05-23 20:27:00,64.1,51.2,30.12,ESE,109,6.0,9.0,63,0.00,,,0.00,16,Wunderground v.1.15,2013-05-24 01:27:00,
2013-05-23 20:32:00,63.6,50.8,30.12,ESE,111,5.0,7.0,63,0.00,,,0.00,12,Wunderground v.1.15,2013-05-24 01:32:00,
2013-05-23 20:37:00,63.2,50.8,30.12,ESE,116,4.0,7.0,64,0.00,,,0.00,9,Wunderground v.1.15,2013-05-24 01:37:00,
2013-05-23 20:42:00,62.8,50.4,30.12,ESE,116,4.0,6.0,64,0.00,,,0.00,5,Wunderground v.1.15,2013-05-24 01:42:00,
2013-05-23 20:47:00,62.3,50.0,30.13,ESE,115,4.0,6.0,64,0.00,,,0.00,0,Wunderground v.1.15,2013-05-24 01:47:00,
2013-05-23 20:52:00,61.7,49.8,30.13,ESE,117,5.0,6.0,65,0.00,,,0.00,0,Wunderground v.1.15,2013-05-24 01:52:00,
2013-05-23 20:57:00,61.4,49.5,30.13,ESE,117,5.0,6.0,65,0.00,,,0.00,0,Wunderground v.1.15,2013-05-24 01:57:00,
2013-05-23 21:02:00,61.0,49.1,30.13,ESE,117,5.0,6.0,65,0.00,,,0.00,0,Wunderground v.1.15,2013-05-24 02:02:00,
2013-05-23 21:07:00,60.5,49.1,30.13,ESE,119,6.0,6.0,66,0.00,,,0.00,0,Wunderground v.1.15,2013-05-24 02:07:00,
2013-05-23 21:13:00,59.9,49.3,30.13,ESE,120,5.0,6.0,68,0.00,,,0.00,0,Wunderground v.1.15,2013-05-24 02:13:00,
2013-05-23 21:18:00,59.6,49.4,30.13,ESE,120,5.0,6.0,69,0.00,,,0.00,0,Wunderground v.1.15,2013-05-24 02:18:00,
2013-05-23 21:23:00,59.3,49.5,30.13,ESE,120,5.0,6.0,70,0.00,,,0.00,0,Wunderground v.1.15,2013-05-24 02:23:00,
2013-05-23 21:28:00,59.0,49.6,30.13,ESE,120,6.0,6.0,71,0.00,,,0.00,0,Wunderground v.1.15,2013-05-24 02:28:00,
2013-05-23 21:33:00,58.7,49.7,30.13,ESE,120,5.0,6.0,72,0.00,,,0.00,0,Wunderground v.1.15,2013-05-24 02:33:00,
2013-05-23 21:38:00,58.6,49.6,30.13,ESE,120,5.0,6.0,72,0.00,,,0.00,0,Wunderground v.1.15,2013-05-24 02:38:00,
2013-05-23 21:43:00,58.4,49.8,30.13,ESE,120,5.0,5.0,73,0.00,,,0.00,0,Wunderground v.1.15,2013-05-24 02:43:00,
2013-05-23 21:48:00,58.3,49.7,30.13,ESE,120,5.0,5.0,73,0.00,,,0.00,0,Wunderground v.1.15,2013-05-24 02:48:00,
2013-05-23 21:53:00,58.2,49.6,30.14,ESE,120,5.0,5.0,73,0.00,,,0.00,0,Wunderground v.1.15,2013-05-24 02:53:00,
2013-05-23 21:58:00,58.0,49.4,30.14,ESE,120,6.0,6.0,73,0.00,,,0.00,0,Wunderground v.1.15,2013-05-24 02:58:00,
2013-05-23 22:03:00,57.7,49.1,30.14,ESE,121,5.0,6.0,73,0.00,,,0.00,0,Wunderground v.1.15,2013-05-24 03:03:00,
2013-05-23 22:08:00,57.5,49.3,30.14,ESE,121,6.0,6.0,74,0.00,,,0.00,0,Wunderground v.1.15,2013-05-24 03:08:00,
2013-05-23 22:13:00,57.2,49.0,30.15,ESE,121,7.0,7.0,74,0.00,,,0.00,0,Wunderground v.1.15,2013-05-24 03:13:00,
2013-05-23 22:18:00,56.9,48.7,30.15,ESE,121,6.0,7.0,74,0.00,,,0.00,0,Wunderground v.1.15,2013-05-24 03:18:00,
2013-05-23 22:23:00,56.6,48.8,30.16,ESE,121,6.0,6.0,75,0.00,,,0.00,0,Wunderground v.1.15,2013-05-24 03:23:00,
2013-05-23 22:28:00,56.3,48.5,30.16,ESE,121,5.0,6.0,75,0.00,,,0.00,0,Wunderground v.1.15,2013-05-24 03:28:00,
2013-05-23 22:33:00,56.0,48.2,30.16,ESE,121,5.0,6.0,75,0.00,,,0.00,0,Wunderground v.1.15,2013-05-24 03:33:00,
2013-05-23 22:39:00,55.7,47.9,30.16,ESE,121,4.0,6.0,75,0.00,,,0.00,0,Wunderground v.1.15,2013-05-24 03:39:00,
2013-05-23 22:44:00,55.2,47.8,30.16,ESE,121,5.0,6.0,76,0.00,,,0.00,0,Wunderground v.1.15,2013-05-24 03:44:00,
2013-05-23 22:49:00,54.9,47.8,30.16,ESE,121,5.0,6.0,77,0.00,,,0.00,0,Wunderground v.1.15,2013-05-24 03:49:00,
2013-05-23 22:54:00,54.6,47.5,30.16,ESE,121,4.0,5.0,77,0.00,,,0.00,0,Wunderground v.1.15,2013-05-24 03:54:00,
2013-05-23 22:59:00,54.4,47.7,30.17,ESE,121,5.0,5.0,78,0.00,,,0.00,0,Wunderground v.1.15,2013-05-24 03:59:00,
2013-05-23 23:01:00,54.3,47.6,30.16,ESE,121,4.0,5.0,78,0.00,,,0.00,0,Wunderground v.1.15,2013-05-24 04:01:00,
2013-05-23 23:06:00,54.1,47.7,30.17,ESE,121,4.0,5.0,79,0.00,,,0.00,0,Wunderground v.1.15,2013-05-24 04:06:00,
2013-05-23 23:11:00,53.8,47.4,30.17,ESE,121,5.0,5.0,79,0.00,,,0.00,0,Wunderground v.1.15,2013-05-24 04:11:00,
2013-05-23 23:16:00,53.6,47.6,30.16,ESE,110,5.0,6.0,80,0.00,,,0.00,0,Wunderground v.1.15,2013-05-24 04:16:00,
2013-05-23 23:21:00,53.5,47.8,30.16,East,98,5.0,6.0,81,0.00,,,0.00,0,Wunderground v.1.15,2013-05-24 04:21:00,
2013-05-23 23:26:00,53.5,47.8,30.16,East,98,5.0,6.0,81,0.00,,,0.00,0,Wunderground v.1.15,2013-05-24 04:26:00,
2013-05-23 23:31:00,53.5,48.1,30.17,East,98,5.0,5.0,82,0.00,,,0.00,0,Wunderground v.1.15,2013-05-24 04:31:00,
2013-05-23 23:36:00,53.4,47.7,30.17,East,98,2.0,5.0,81,0.00,,,0.00,0,Wunderground v.1.15,2013-05-24 04:36:00,
2013-05-23 23:41:00,53.3,47.6,30.17,East,98,1.0,4.0,81,0.00,,,0.00,0,Wunderground v.1.15,2013-05-24 04:41:00,
2013-05-23 23:46:00,53.2,47.5,30.17,East,98,2.0,4.0,81,0.00,,,0.00,0,Wunderground v.1.15,2013-05-24 04:46:00,
2013-05-23 23:51:00,53.1,47.7,30.17,East,98,2.0,4.0,82,0.00,,,0.00,0,Wunderground v.1.15,2013-05-24 04:51:00,
2013-05-23 23:56:00,53.1,47.7,30.18,East,98,5.0,5.0,82,0.00,,,0.00,0,Wunderground v.1.15,2013-05-24 04:56:00,